Walshville, IL (62091)

8:36 PM CDT on September 15, 2014 (GMT -0500)
Rezy Road | Change Station
CLOSE
Current Station
Personal Weather Station
Location: Staunton, IL
Elevation: 630 ft
Nearby Weather Stations

Elev 630 ft 38.99 °N, 89.75 °W | Updated 11 seconds ago

Overcast
Overcast
61.5 °F
Feels Like 61.5 °F
N
6.0
Wind Variable Wind from NNW
Gusts 14.0 mph

Today
High -- | Low -- °F
--% Chance of Precip.
Yesterday
High -- | Low -- °F
Precip. -- in
6:39 AM 7:06 PM
Waning Gibbous, 50% visible
Pressure 30.12 in
Visibility 10.0 miles
Clouds Mostly Cloudy 700 ft
Overcast 1200 ft
Dew Point 60 °F
Humidity 94%
Rainfall 0.02 in
Snow Depth Not available.
UV 0 out of 12
Pollen 6.00 out of 12
Air Quality Not available.
Flu Activity Not available.
METAR K3LF 160115Z AUTO 34010KT 10SM BKN007 OVC012 15/15 A3012 RMK AO2 T01530148

More Conditions Fewer Conditions

Pressure 30.12 in
Visibility 10.0 miles
Clouds Mostly Cloudy 700 ft
Overcast 1200 ft
Dew Point 60 °F
Humidity 94%
Rainfall 0.02 in
Snow Depth Not available.
UV 0 out of 12
Pollen 6.00 out of 12
Air Quality Not available.
Flu Activity Not available.
METAR K3LF 160115Z AUTO 34010KT 10SM BKN007 OVC012 15/15 A3012 RMK AO2 T01530148

More Conditions Fewer Conditions

10-Day Weather Forecast

Almanac

Astronomy

Sep. 15, 2014 Rise Set
Actual Time 6:39 AM CDT 7:06 PM CDT
Civil Twilight 6:13 AM CDT 7:33 PM CDT
Nautical Twilight 5:41 AM CDT 8:05 PM CDT
Astronomical Twilight 5:09 AM CDT 8:37 PM CDT
Moon 11:52 PM CDT (9/15) 1:37 PM CDT (9/15)
Length of Visible Light 13h 20m
Length of Day
12h 26m
Tomorrow will be 2m 30s shorter.
Waning Gibbous, 50% of the Moon is Illuminated
Today
Waning Gibbous
Sep 15
Last Quarter
Sep 24
New
Oct 1
First Quarter
Oct 8
Full

Today's Extremes

State Highs State Lows

Community

WunderPhotos

Upload Photos

1,753,643 photos uploaded!

WunderBlogs® & News

Nearby

Snow Depth

Station Depth Elevation
No new snow has been reported.

Earthquake Activity

City Distance Mag. Time & Date
No recent earthquake activity has been reported nearby.
Minimum magnitude displayed is 2.5.

Coastal Water Temperatures

Place Temperature
No Stations Reporting

Nearby Weather Stations